createdAt,value
2019-04-06T00:04:50.626Z,36.80
2019-04-06T00:09:52.476Z,56.60
2019-04-06T00:14:54.266Z,55.97
2019-04-06T00:19:55.977Z,44.10
2019-04-06T00:24:57.666Z,37.37
2019-04-06T00:29:59.367Z,45.30
2019-04-06T00:35:01.127Z,46.13
2019-04-06T00:40:04.163Z,31.70
2019-04-06T00:45:06.117Z,58.03
2019-04-06T00:50:07.985Z,41.00
2019-04-06T00:55:09.742Z,41.70
2019-04-06T01:00:12.563Z,43.50
2019-04-06T01:05:14.767Z,46.90
2019-04-06T01:10:16.480Z,51.63
2019-04-06T01:15:18.179Z,49.03
2019-04-06T01:20:19.933Z,44.97
2019-04-06T01:25:23.766Z,51.33
2019-04-06T01:30:25.533Z,46.33
2019-04-06T01:35:27.655Z,50.50
2019-04-06T01:40:29.344Z,50.83
2019-04-06T01:45:34.299Z,52.60
2019-04-06T01:50:36.132Z,49.37
2019-04-06T01:55:37.933Z,49.67
2019-04-06T02:00:41.705Z,46.20
2019-04-06T02:05:43.797Z,46.13
2019-04-06T02:10:46.520Z,57.43
2019-04-06T02:15:49.044Z,47.50
2019-04-06T02:20:51.325Z,49.13
2019-04-06T02:25:54.881Z,51.30
2019-04-06T02:30:58.688Z,58.87
2019-04-06T02:36:09.896Z,39.70
2019-04-06T02:41:13.449Z,51.00
2019-04-06T02:46:20.253Z,43.13
2019-04-06T02:51:22.378Z,49.00
2019-04-06T02:56:24.079Z,41.40
2019-04-06T03:01:25.888Z,37.63
2019-04-06T03:06:31.053Z,45.93
2019-04-06T03:11:32.849Z,53.40
2019-04-06T03:16:35.058Z,48.50
2019-04-06T03:21:37.678Z,48.20
2019-04-06T03:26:39.382Z,50.40
2019-04-06T03:31:41.093Z,52.80
2019-04-06T03:36:42.884Z,49.23
2019-04-06T03:41:44.558Z,99.57
2019-04-06T03:46:46.646Z,47.17
2019-04-06T03:51:48.578Z,51.47
2019-04-06T03:56:50.826Z,43.43
2019-04-06T04:01:54.143Z,134.10
2019-04-06T04:06:55.998Z,125.77
2019-04-06T04:11:57.692Z,87.53
2019-04-06T04:16:59.603Z,133.60
2019-04-06T04:22:01.921Z,75.37
2019-04-06T04:27:03.619Z,60.40
2019-04-06T04:32:05.313Z,45.17
2019-04-06T04:37:07.129Z,47.73
2019-04-06T04:42:08.829Z,51.03
2019-04-06T04:47:10.660Z,60.67
2019-04-06T04:52:12.446Z,55.47
2019-04-06T04:57:14.134Z,53.03
2019-04-06T05:02:15.938Z,55.40
2019-04-06T05:07:17.744Z,110.33
2019-04-06T05:12:19.552Z,56.83
2019-04-06T05:17:21.313Z,58.60
2019-04-06T05:22:23.006Z,48.43
2019-04-06T05:27:24.764Z,51.23
2019-04-06T05:32:26.510Z,58.63
2019-04-06T05:37:28.243Z,58.10
2019-04-06T05:42:29.918Z,110.37
2019-04-06T05:47:31.620Z,78.00
2019-04-06T05:52:33.754Z,64.63
2019-04-06T05:57:37.431Z,59.60
2019-04-06T06:02:41.327Z,86.70
2019-04-06T06:07:42.673Z,100.70
2019-04-06T06:12:44.479Z,71.73
2019-04-06T06:17:46.439Z,65.23
2019-04-06T06:22:48.210Z,78.40
2019-04-06T06:27:49.944Z,82.00
2019-04-06T06:32:51.749Z,73.80
2019-04-06T06:37:53.645Z,84.47
2019-04-06T06:42:55.502Z,93.57
2019-04-06T06:47:57.783Z,89.47
2019-04-06T06:52:59.584Z,77.13
2019-04-06T06:58:01.329Z,86.10
2019-04-06T07:03:03.041Z,65.27
2019-04-06T07:08:04.943Z,63.13
2019-04-06T07:13:06.980Z,77.87
2019-04-06T07:18:09.085Z,80.13
2019-04-06T07:23:10.798Z,106.60
2019-04-06T07:28:12.906Z,71.50
2019-04-06T07:33:14.716Z,76.87
2019-04-06T07:38:16.346Z,112.37
2019-04-06T07:43:18.033Z,131.30
2019-04-06T07:48:20.134Z,112.13
2019-04-06T07:53:21.838Z,122.47
2019-04-06T07:58:23.541Z,125.27
2019-04-06T08:03:25.241Z,132.63
2019-04-06T08:08:28.859Z,131.23
2019-04-06T08:13:30.707Z,143.27
2019-04-06T08:18:33.138Z,141.70
2019-04-06T08:23:35.944Z,119.70
2019-04-06T08:28:37.659Z,120.60
2019-04-06T08:33:39.456Z,113.93
2019-04-06T08:38:41.258Z,130.83
2019-04-06T08:43:43.068Z,109.50
2019-04-06T08:48:45.384Z,100.73
2019-04-06T08:53:47.119Z,83.50
2019-04-06T08:58:48.945Z,77.37
2019-04-06T09:03:50.803Z,81.80
2019-04-06T09:08:52.600Z,76.00
2019-04-06T09:13:54.541Z,72.43
2019-04-06T09:18:56.611Z,68.87
2019-04-06T09:24:00.442Z,68.87
2019-04-06T09:29:02.159Z,47.13
2019-04-06T09:39:18.393Z,57.43
2019-04-06T09:44:21.882Z,60.97
2019-04-06T09:49:25.806Z,57.07
2019-04-06T09:54:29.509Z,58.73
2019-04-06T09:59:42.250Z,49.50
2019-04-06T10:04:58.114Z,51.17
2019-04-06T10:10:04.987Z,57.50
2019-04-06T10:15:17.599Z,48.33
2019-04-06T10:20:39.478Z,41.13
2019-04-06T10:25:53.733Z,45.73
2019-04-06T10:31:00.999Z,47.67
2019-04-06T10:36:05.037Z,42.67
2019-04-06T10:41:14.387Z,55.33
2019-04-06T10:52:08.222Z,61.00
2019-04-06T10:57:12.412Z,61.10
2019-04-06T11:02:32.873Z,49.50
2019-04-06T11:07:54.853Z,40.00
2019-04-06T11:13:13.921Z,46.77
2019-04-06T11:18:34.268Z,61.03
2019-04-06T11:23:37.725Z,45.33
2019-04-06T11:28:47.517Z,55.37
2019-04-06T11:34:06.065Z,57.47
2019-04-06T11:39:09.653Z,42.27
2019-04-06T11:44:22.430Z,52.03
2019-04-06T11:49:31.806Z,48.93
2019-04-06T11:54:38.952Z,45.33
2019-04-06T11:59:48.846Z,56.77
2019-04-06T12:05:04.472Z,55.70
2019-04-06T12:10:26.546Z,43.93
2019-04-06T12:15:36.274Z,52.37
2019-04-06T12:20:40.568Z,54.33
2019-04-06T12:25:47.059Z,50.43
2019-04-06T12:31:07.795Z,56.47
2019-04-06T12:36:14.863Z,57.43
2019-04-06T12:41:21.587Z,51.27
2019-04-06T12:46:25.275Z,50.40
2019-04-06T12:51:28.846Z,65.43
2019-04-06T12:56:41.601Z,53.83
2019-04-06T13:01:51.622Z,46.70
2019-04-06T13:06:55.746Z,45.57
2019-04-06T13:12:09.014Z,49.80
2019-04-06T13:17:21.796Z,43.27
2019-04-06T13:22:31.299Z,57.07
2019-04-06T13:27:44.369Z,68.70
2019-04-06T13:32:53.181Z,50.73
2019-04-06T13:38:08.841Z,56.80
2019-04-06T13:43:15.268Z,55.27
2019-04-06T13:48:18.823Z,46.83
2019-04-06T13:53:25.163Z,48.63
2019-04-06T13:58:29.998Z,55.20
2019-04-06T14:03:46.301Z,53.73
2019-04-06T14:08:52.614Z,59.23
2019-04-06T14:14:08.378Z,48.63
2019-04-06T14:19:28.622Z,49.77
2019-04-06T14:24:38.359Z,53.17
2019-04-06T14:29:51.521Z,55.13
2019-04-06T14:35:05.326Z,61.27
2019-04-06T14:40:12.157Z,58.37
2019-04-06T14:45:28.979Z,60.50
2019-04-06T14:50:38.669Z,67.20
2019-04-06T14:55:42.761Z,59.10
2019-04-06T15:00:46.264Z,51.97
2019-04-06T15:05:53.033Z,56.43
2019-04-06T15:11:06.185Z,44.00
2019-04-06T15:16:16.306Z,58.23
2019-04-06T15:21:34.609Z,66.47
2019-04-06T15:26:44.192Z,71.83
2019-04-06T15:32:02.307Z,78.97
2019-04-06T15:37:08.696Z,48.77
2019-04-06T15:42:20.717Z,68.50
2019-04-06T15:47:24.293Z,66.23
2019-04-06T15:52:40.163Z,57.07
2019-04-06T15:57:53.344Z,65.93
2019-04-06T16:03:09.346Z,55.30
2019-04-06T16:08:24.681Z,65.90
2019-04-06T16:13:37.275Z,53.40
2019-04-06T16:18:46.580Z,58.80
2019-04-06T16:24:09.205Z,55.87
2019-04-06T16:29:15.961Z,49.43
2019-04-06T16:34:19.690Z,56.20
2019-04-06T16:39:35.809Z,61.10
2019-04-06T16:44:39.735Z,56.20
2019-04-06T16:50:01.717Z,66.63
2019-04-06T16:55:18.735Z,64.73
2019-04-06T17:00:22.627Z,64.77
2019-04-06T17:05:43.191Z,60.20
2019-04-06T17:11:03.757Z,54.60
2019-04-06T17:16:16.290Z,56.13
2019-04-06T17:21:29.149Z,55.33
2019-04-06T17:26:44.793Z,67.60
2019-04-06T17:31:48.339Z,49.80
2019-04-06T17:36:57.708Z,60.03
2019-04-06T17:42:04.435Z,56.63
2019-04-06T17:47:13.562Z,54.67
2019-04-06T17:52:19.449Z,54.03
2019-04-06T17:57:23.412Z,57.27
2019-04-06T18:02:48.263Z,51.47
2019-04-06T18:08:03.838Z,55.23
2019-04-06T18:13:07.635Z,54.33
2019-04-06T18:18:10.222Z,49.00
2019-04-06T18:23:11.977Z,53.13
2019-04-06T18:28:14.140Z,52.80
2019-04-06T18:33:18.323Z,54.07
2019-04-06T18:38:36.709Z,50.53
2019-04-06T18:43:38.496Z,40.83
2019-04-06T18:48:40.497Z,43.10
2019-04-06T18:53:42.572Z,58.43
2019-04-06T18:58:44.786Z,47.27
2019-04-06T19:03:46.629Z,43.37
2019-04-06T19:08:48.302Z,40.27
2019-04-06T19:13:49.996Z,71.37
2019-04-06T19:18:52.043Z,45.07
2019-04-06T19:23:53.900Z,47.87
2019-04-06T19:28:55.499Z,48.80
2019-04-06T19:33:57.170Z,42.33
2019-04-06T19:38:59.544Z,46.70
2019-04-06T19:44:01.302Z,53.20
2019-04-06T19:49:03.116Z,55.33
2019-04-06T19:54:06.445Z,52.40
2019-04-06T19:59:08.710Z,53.43
2019-04-06T20:04:10.698Z,60.93
2019-04-06T20:09:13.345Z,42.83
2019-04-06T20:14:15.291Z,59.03
2019-04-06T20:19:17.128Z,46.87
2019-04-06T20:24:18.902Z,52.50
2019-04-06T20:29:20.677Z,52.40
2019-04-06T20:34:23.008Z,46.70
2019-04-06T20:39:25.331Z,70.33
2019-04-06T20:44:27.745Z,41.03
2019-04-06T20:49:29.724Z,54.33
2019-04-06T20:54:31.934Z,50.10
2019-04-06T20:59:33.776Z,49.00
2019-04-06T21:04:35.498Z,39.30
2019-04-06T21:09:37.259Z,48.17
2019-04-06T21:14:39.062Z,43.37
2019-04-06T21:19:40.871Z,56.03
2019-04-06T21:24:42.926Z,58.47
2019-04-06T21:29:45.398Z,46.67
2019-04-06T21:34:47.390Z,48.10
2019-04-06T21:39:49.489Z,48.03
2019-04-06T21:44:51.842Z,42.93
2019-04-06T21:49:53.558Z,54.30
2019-04-06T21:54:55.285Z,47.60
2019-04-06T21:59:57.951Z,46.30
2019-04-06T22:05:00.053Z,38.60
2019-04-06T22:10:02.651Z,44.63
2019-04-06T22:15:05.888Z,46.70
2019-04-06T22:20:07.704Z,38.20
2019-04-06T22:25:09.523Z,38.03
2019-04-06T22:30:11.372Z,52.47
2019-04-06T22:35:13.530Z,40.43
2019-04-06T22:40:15.707Z,37.03
2019-04-06T22:45:25.497Z,39.90
2019-04-06T22:50:27.334Z,54.17
2019-04-06T22:55:29.139Z,42.47
2019-04-06T23:00:37.470Z,41.20
2019-04-06T23:05:49.850Z,43.03
2019-04-06T23:10:52.194Z,43.20
2019-04-06T23:15:54.233Z,41.70
2019-04-06T23:20:56.501Z,41.13
2019-04-06T23:25:58.782Z,36.40
2019-04-06T23:31:00.513Z,43.27
2019-04-06T23:36:02.191Z,42.30
2019-04-06T23:41:04.700Z,47.20
2019-04-06T23:46:06.501Z,38.73
2019-04-06T23:51:08.319Z,43.57
2019-04-06T23:56:10.156Z,45.53
